createdAt,value
2023-05-08T00:02:10.066Z,101699.35
2023-05-08T00:07:13.172Z,101703.23
2023-05-08T00:12:16.185Z,101704.50
2023-05-08T00:17:19.285Z,101701.70
2023-05-08T00:22:22.495Z,101700.64
2023-05-08T00:27:25.626Z,101701.70
2023-05-08T00:32:29.291Z,101705.77
2023-05-08T00:37:32.422Z,101713.52
2023-05-08T00:42:35.320Z,101727.98
2023-05-08T00:47:38.877Z,101723.98
2023-05-08T00:52:41.900Z,101725.52
2023-05-08T00:57:46.886Z,101728.77
2023-05-08T01:02:50.266Z,101733.69
2023-05-08T01:07:53.404Z,101738.02
2023-05-08T01:13:11.906Z,101746.22
2023-05-08T01:18:18.158Z,101744.95
2023-05-08T01:23:39.696Z,101747.11
2023-05-08T01:28:45.865Z,101746.09
2023-05-08T01:33:57.038Z,101749.83
2023-05-08T01:39:09.385Z,101751.86
2023-05-08T01:44:24.574Z,101756.14
2023-05-08T01:49:30.342Z,101756.86
2023-05-08T01:54:36.622Z,101754.29
2023-05-08T01:59:41.882Z,101760.31
2023-05-08T02:04:45.082Z,101761.01
2023-05-08T02:09:48.808Z,101760.30
2023-05-08T02:14:53.555Z,101768.54
2023-05-08T02:19:58.393Z,101774.34
2023-05-08T02:25:01.501Z,101773.13
2023-05-08T02:30:04.606Z,101771.60
2023-05-08T02:35:08.582Z,101772.98
2023-05-08T02:40:13.341Z,101781.85
2023-05-08T02:45:17.004Z,101785.08
2023-05-08T02:50:23.376Z,101789.71
2023-05-08T02:55:46.551Z,101786.58
2023-05-08T03:00:54.164Z,101787.66
2023-05-08T03:05:58.289Z,101788.31
2023-05-08T03:11:15.419Z,101791.23
2023-05-08T03:16:21.321Z,101793.98
2023-05-08T03:21:26.957Z,101797.05
2023-05-08T03:26:30.283Z,101793.74
2023-05-08T03:31:34.251Z,101797.05
2023-05-08T03:36:37.400Z,101800.16
2023-05-08T03:41:40.500Z,101803.98
2023-05-08T03:46:45.025Z,101803.70
2023-05-08T03:51:48.455Z,101803.47
2023-05-08T03:56:54.668Z,101806.26
2023-05-08T04:02:10.422Z,101804.31
2023-05-08T04:07:19.400Z,101806.40
2023-05-08T04:12:25.260Z,101806.49
2023-05-08T04:17:35.065Z,101810.27
2023-05-08T04:22:39.667Z,101811.92
2023-05-08T04:27:44.016Z,101818.49
2023-05-08T04:32:48.256Z,101816.91
2023-05-08T04:37:51.541Z,101822.05
2023-05-08T04:42:54.544Z,101826.45
2023-05-08T04:47:57.607Z,101826.84
2023-05-08T04:53:00.763Z,101828.91
2023-05-08T04:58:03.862Z,101833.75
2023-05-08T05:03:06.832Z,101842.62
2023-05-08T05:08:09.871Z,101840.97
2023-05-08T05:13:12.988Z,101847.67
2023-05-08T05:18:16.188Z,101853.59
2023-05-08T05:23:19.275Z,101850.45
2023-05-08T05:28:22.281Z,101853.55
2023-05-08T05:33:25.288Z,101858.38
2023-05-08T05:38:28.187Z,101862.03
2023-05-08T05:43:32.689Z,101867.03
2023-05-08T05:48:36.139Z,101873.69
2023-05-08T05:53:39.236Z,101875.84
2023-05-08T05:58:45.212Z,101872.34
2023-05-08T06:03:48.589Z,101875.83
2023-05-08T06:08:51.935Z,101882.14
2023-05-08T06:13:55.248Z,101882.96
2023-05-08T06:18:58.361Z,101885.96
2023-05-08T06:24:01.869Z,101891.29
2023-05-08T06:29:04.872Z,101891.04
2023-05-08T06:34:08.296Z,101894.64
2023-05-08T06:39:11.305Z,101898.05
2023-05-08T06:44:15.109Z,101898.00
2023-05-08T06:49:18.122Z,101895.05
2023-05-08T06:54:21.432Z,101893.64
2023-05-08T06:59:24.636Z,101897.27
2023-05-08T07:04:28.182Z,101897.35
2023-05-08T07:09:32.177Z,101897.20
2023-05-08T07:14:35.194Z,101901.76
2023-05-08T07:19:38.743Z,101902.66
2023-05-08T07:24:41.802Z,101904.35
2023-05-08T07:29:44.805Z,101906.28
2023-05-08T07:34:48.016Z,101905.77
2023-05-08T07:39:51.844Z,101902.52
2023-05-08T07:44:55.445Z,101892.29
2023-05-08T07:49:58.564Z,101891.68
2023-05-08T07:55:01.874Z,101892.98
2023-05-08T08:00:08.949Z,101889.05
2023-05-08T08:05:12.679Z,101887.24
2023-05-08T08:10:15.989Z,101889.13
2023-05-08T08:15:19.010Z,101887.09
2023-05-08T08:20:22.540Z,101883.46
2023-05-08T08:25:25.729Z,101882.54
2023-05-08T08:30:28.943Z,101876.70
2023-05-08T08:35:33.288Z,101879.70
2023-05-08T08:40:40.666Z,101878.39
2023-05-08T08:45:43.976Z,101884.66
2023-05-08T08:50:49.143Z,101881.92
2023-05-08T08:55:54.082Z,101877.02
2023-05-08T09:00:58.619Z,101876.58
2023-05-08T09:06:01.827Z,101874.19
2023-05-08T09:11:05.145Z,101872.92
2023-05-08T09:16:08.342Z,101862.90
2023-05-08T09:21:11.860Z,101858.67
2023-05-08T09:26:27.267Z,101853.55
2023-05-08T09:31:37.082Z,101849.50
2023-05-08T09:36:42.252Z,101850.78
2023-05-08T09:41:57.465Z,101847.81
2023-05-08T09:47:20.844Z,101841.13
2023-05-08T09:52:24.459Z,101839.81
2023-05-08T09:57:28.481Z,101841.34
2023-05-08T10:02:31.848Z,101837.34
2023-05-08T10:07:37.357Z,101836.26
2023-05-08T10:12:41.815Z,101830.38
2023-05-08T10:17:51.419Z,101820.25
2023-05-08T10:22:57.122Z,101813.29
2023-05-08T10:28:07.044Z,101809.30
2023-05-08T10:33:11.240Z,101800.48
2023-05-08T10:38:15.866Z,101800.08
2023-05-08T10:43:19.581Z,101792.40
2023-05-08T10:48:41.529Z,101786.38
2023-05-08T10:53:49.673Z,101778.23
2023-05-08T10:58:56.345Z,101782.63
2023-05-08T11:03:59.497Z,101779.98
2023-05-08T11:09:02.682Z,101774.19
2023-05-08T11:14:08.932Z,101770.04
2023-05-08T11:19:18.786Z,101769.38
2023-05-08T11:24:32.855Z,101766.00
2023-05-08T11:29:36.586Z,101762.64
2023-05-08T11:34:42.971Z,101757.67
2023-05-08T11:39:47.102Z,101753.73
2023-05-08T11:44:50.805Z,101753.55
2023-05-08T11:49:55.696Z,101746.41
2023-05-08T11:55:01.535Z,101741.82
2023-05-08T12:00:06.270Z,101740.20
2023-05-08T12:05:09.952Z,101738.33
2023-05-08T12:10:13.879Z,101730.20
2023-05-08T12:15:17.437Z,101728.02
2023-05-08T12:20:20.855Z,101722.02
2023-05-08T12:25:26.102Z,101720.63
2023-05-08T12:30:29.617Z,101713.08
2023-05-08T12:35:33.132Z,101711.48
2023-05-08T12:40:41.157Z,101713.62
2023-05-08T12:45:44.193Z,101710.83
2023-05-08T12:50:47.681Z,101709.95
2023-05-08T12:55:53.090Z,101713.06
2023-05-08T13:01:05.470Z,101707.29
2023-05-08T13:06:19.206Z,101697.96
2023-05-08T13:11:30.490Z,101693.27
2023-05-08T13:16:42.077Z,101696.20
2023-05-08T13:21:47.852Z,101686.68
2023-05-08T13:26:50.875Z,101681.27
2023-05-08T13:31:54.031Z,101681.52
2023-05-08T13:36:58.734Z,101677.92
2023-05-08T13:42:01.730Z,101669.89
2023-05-08T13:47:04.836Z,101665.86
2023-05-08T13:52:07.961Z,101658.83
2023-05-08T13:57:11.558Z,101654.77
2023-05-08T14:02:14.785Z,101651.85
2023-05-08T14:07:18.812Z,101652.28
2023-05-08T14:12:21.794Z,101647.13
2023-05-08T14:17:25.036Z,101640.44
2023-05-08T14:22:28.338Z,101635.63
2023-05-08T14:27:31.327Z,101635.64
2023-05-08T14:32:34.762Z,101635.05
2023-05-08T14:37:37.941Z,101632.60
2023-05-08T14:42:41.463Z,101631.91
2023-05-08T14:47:44.710Z,101636.20
2023-05-08T14:52:48.798Z,101634.73
2023-05-08T14:57:51.905Z,101629.98
2023-05-08T15:02:55.358Z,101622.70
2023-05-08T15:07:58.422Z,101622.45
2023-05-08T15:13:01.755Z,101619.16
2023-05-08T15:18:05.340Z,101616.06
2023-05-08T15:23:08.982Z,101611.66
2023-05-08T15:28:11.970Z,101610.35
2023-05-08T15:33:15.282Z,101608.70
2023-05-08T15:38:18.294Z,101604.86
2023-05-08T15:43:21.502Z,101603.56
2023-05-08T15:48:24.717Z,101598.70
2023-05-08T15:53:27.806Z,101596.49
2023-05-08T15:58:30.813Z,101594.92
2023-05-08T16:03:34.389Z,101593.63
2023-05-08T16:08:37.947Z,101596.02
2023-05-08T16:13:40.946Z,101590.77
2023-05-08T16:18:44.364Z,101587.49
2023-05-08T16:23:47.801Z,101586.27
2023-05-08T16:28:51.389Z,101584.54
2023-05-08T16:33:54.495Z,101584.89
2023-05-08T16:38:57.706Z,101581.92
2023-05-08T16:44:01.019Z,101584.73
2023-05-08T16:49:04.120Z,101588.91
2023-05-08T16:54:07.232Z,101588.52
2023-05-08T16:59:10.341Z,101590.91
2023-05-08T17:04:13.533Z,101587.27
2023-05-08T17:09:18.592Z,101587.36
2023-05-08T17:14:21.808Z,101592.86
2023-05-08T17:19:25.623Z,101593.89
2023-05-08T17:24:29.977Z,101594.29
2023-05-08T17:29:33.686Z,101592.33
2023-05-08T17:34:37.738Z,101596.11
2023-05-08T17:39:40.909Z,101593.65
2023-05-08T17:44:44.046Z,101595.51
2023-05-08T17:49:47.287Z,101597.07
2023-05-08T17:54:51.377Z,101595.40
2023-05-08T17:59:54.457Z,101603.10
2023-05-08T18:04:58.291Z,101604.15
2023-05-08T18:10:01.381Z,101608.90
2023-05-08T18:15:05.653Z,101614.58
2023-05-08T18:20:09.670Z,101620.96
2023-05-08T18:25:13.379Z,101626.30
2023-05-08T18:30:17.396Z,101630.94
2023-05-08T18:35:21.952Z,101637.91
2023-05-08T18:40:25.358Z,101644.27
2023-05-08T18:45:29.066Z,101649.53
2023-05-08T18:50:32.270Z,101656.46
2023-05-08T18:55:36.001Z,101659.58
2023-05-08T19:00:39.039Z,101665.05
2023-05-08T19:05:42.227Z,101668.48
2023-05-08T19:10:46.143Z,101667.67
2023-05-08T19:15:50.310Z,101665.45
2023-05-08T19:20:54.280Z,101659.79
2023-05-08T19:25:57.330Z,101659.66
2023-05-08T19:31:00.906Z,101662.88
2023-05-08T19:36:04.215Z,101662.80
2023-05-08T19:41:08.039Z,101666.83
2023-05-08T19:46:10.998Z,101668.92
2023-05-08T19:51:16.620Z,101669.30
2023-05-08T19:56:19.714Z,101668.75
2023-05-08T20:01:22.972Z,101670.29
2023-05-08T20:06:26.604Z,101668.98
2023-05-08T20:11:30.059Z,101667.08
2023-05-08T20:16:34.026Z,101667.20
2023-05-08T20:21:37.178Z,101667.80
2023-05-08T20:26:41.747Z,101666.71
2023-05-08T20:31:44.788Z,101672.14
2023-05-08T20:36:48.038Z,101672.40
2023-05-08T20:41:52.228Z,101672.67
2023-05-08T20:46:57.058Z,101675.58
2023-05-08T20:52:01.536Z,101673.05
2023-05-08T20:57:05.198Z,101677.57
2023-05-08T21:02:08.736Z,101679.34
2023-05-08T21:07:11.924Z,101685.66
2023-05-08T21:12:15.236Z,101686.39
2023-05-08T21:17:18.551Z,101680.48
2023-05-08T21:22:22.270Z,101684.86
2023-05-08T21:27:27.324Z,101686.80
2023-05-08T21:32:30.452Z,101686.98
2023-05-08T21:37:33.652Z,101686.09
2023-05-08T21:42:37.166Z,101688.56
2023-05-08T21:47:40.698Z,101690.40
2023-05-08T21:52:45.523Z,101688.59
2023-05-08T21:57:48.738Z,101687.88
2023-05-08T22:02:52.151Z,101690.08
2023-05-08T22:07:55.457Z,101690.98
2023-05-08T22:12:58.615Z,101693.98
2023-05-08T22:18:03.127Z,101691.80
2023-05-08T22:23:07.242Z,101689.65
2023-05-08T22:28:10.953Z,101683.70
2023-05-08T22:33:14.163Z,101688.52
2023-05-08T22:38:17.372Z,101691.77
2023-05-08T22:43:20.475Z,101689.11
2023-05-08T22:48:23.371Z,101691.56
2023-05-08T22:53:26.374Z,101699.39
2023-05-08T22:58:29.476Z,101706.10
2023-05-08T23:03:32.483Z,101702.18
2023-05-08T23:08:35.397Z,101691.66
2023-05-08T23:13:38.282Z,101691.98
2023-05-08T23:18:41.488Z,101686.21
2023-05-08T23:23:44.695Z,101685.02
2023-05-08T23:28:47.601Z,101682.20
2023-05-08T23:33:50.599Z,101683.11
2023-05-08T23:38:53.910Z,101681.73
2023-05-08T23:43:57.324Z,101682.48
2023-05-08T23:49:00.332Z,101681.00
2023-05-08T23:54:03.552Z,101682.96
2023-05-08T23:59:06.853Z,101679.19
